createdAt,value
2022-11-17T00:03:52.051Z,-2.89
2022-11-17T00:08:54.643Z,-2.79
2022-11-17T00:14:15.767Z,-2.69
2022-11-17T00:19:37.003Z,-2.74
2022-11-17T00:24:39.573Z,-2.79
2022-11-17T00:29:42.315Z,-2.73
2022-11-17T00:34:44.962Z,-2.79
2022-11-17T00:39:47.467Z,-2.71
2022-11-17T00:44:50.057Z,-2.61
2022-11-17T00:49:52.594Z,-2.55
2022-11-17T00:54:55.112Z,-2.58
2022-11-17T00:59:57.633Z,-2.41
2022-11-17T01:05:00.216Z,-2.42
2022-11-17T01:10:02.749Z,-2.64
2022-11-17T01:15:06.131Z,-2.48
2022-11-17T01:20:09.348Z,-2.50
2022-11-17T01:25:11.989Z,-2.39
2022-11-17T01:30:18.409Z,-2.41
2022-11-17T01:35:20.915Z,-2.38
2022-11-17T01:40:23.467Z,-2.37
2022-11-17T01:45:26.968Z,-2.68
2022-11-17T01:50:42.439Z,-2.74
2022-11-17T01:55:52.330Z,-2.69
2022-11-17T02:00:55.799Z,-2.56
2022-11-17T02:06:06.108Z,-2.44
2022-11-17T02:11:18.227Z,-2.35
2022-11-17T02:16:20.951Z,-2.51
2022-11-17T02:21:35.264Z,-2.33
2022-11-17T02:26:59.008Z,-2.23
2022-11-17T02:32:04.901Z,-2.20
2022-11-17T02:37:16.529Z,-2.19
2022-11-17T02:42:48.464Z,-2.18
2022-11-17T02:47:54.963Z,-2.30
2022-11-17T02:52:57.687Z,-2.30
2022-11-17T02:58:00.297Z,-2.23
2022-11-17T03:03:35.500Z,-2.14
2022-11-17T03:09:02.936Z,-2.21
2022-11-17T03:14:20.152Z,-2.32
2022-11-17T03:19:32.600Z,-2.27
2022-11-17T03:24:49.869Z,-2.35
2022-11-17T03:29:57.167Z,-2.40
2022-11-17T03:35:08.227Z,-2.62
2022-11-17T03:40:15.010Z,-2.68
2022-11-17T03:45:22.730Z,-2.39
2022-11-17T03:50:32.202Z,-2.55
2022-11-17T03:56:16.201Z,-2.36
2022-11-17T04:01:21.099Z,-2.42
2022-11-17T04:06:23.771Z,-2.33
2022-11-17T04:11:45.121Z,-2.42
2022-11-17T04:16:47.718Z,-2.30
2022-11-17T04:21:50.338Z,-2.39
2022-11-17T04:27:11.256Z,-2.36
2022-11-17T04:32:13.868Z,-2.26
2022-11-17T04:37:19.771Z,-2.33
2022-11-17T04:42:22.305Z,-2.01
2022-11-17T04:47:24.883Z,-2.04
2022-11-17T04:52:29.940Z,-2.19
2022-11-17T04:57:32.702Z,-2.17
2022-11-17T05:02:35.354Z,-2.07
2022-11-17T05:07:38.060Z,-2.26
2022-11-17T05:13:01.248Z,-2.35
2022-11-17T05:18:03.877Z,-2.38
2022-11-17T05:23:25.061Z,-2.50
2022-11-17T05:28:27.600Z,-2.72
2022-11-17T05:33:36.441Z,-2.57
2022-11-17T05:38:40.655Z,-2.15
2022-11-17T05:43:43.961Z,-2.13
2022-11-17T05:48:48.854Z,-2.17
2022-11-17T05:53:51.762Z,-2.03
2022-11-17T05:59:03.872Z,-1.96
2022-11-17T06:04:08.752Z,-1.84
2022-11-17T06:09:11.969Z,-1.95
2022-11-17T06:14:14.573Z,-1.80
2022-11-17T06:24:25.563Z,-1.70
2022-11-17T06:29:29.006Z,-1.63
2022-11-17T06:34:33.007Z,-1.29
2022-11-17T06:39:35.660Z,-1.18
2022-11-17T06:44:38.195Z,-1.19
2022-11-17T06:49:40.844Z,-1.08
2022-11-17T06:54:43.495Z,-0.99
2022-11-17T06:59:46.183Z,-0.77
2022-11-17T07:04:48.766Z,-0.64
2022-11-17T07:09:51.384Z,-0.58
2022-11-17T07:14:53.933Z,-0.48
2022-11-17T07:19:56.909Z,-0.25
2022-11-17T07:24:59.513Z,-0.35
2022-11-17T07:30:03.082Z,-0.11
2022-11-17T07:35:06.927Z,-0.13
2022-11-17T07:40:10.257Z,-0.16
2022-11-17T07:45:13.043Z,-0.33
2022-11-17T07:50:16.166Z,-0.50
2022-11-17T07:55:19.298Z,-0.35
2022-11-17T08:00:22.312Z,-0.13
2022-11-17T08:05:26.689Z,-0.21
2022-11-17T08:10:31.502Z,-0.60
2022-11-17T08:15:34.161Z,-0.59
2022-11-17T08:20:37.036Z,-0.55
2022-11-17T08:25:39.754Z,-0.67
2022-11-17T08:30:44.411Z,-0.75
2022-11-17T08:35:47.167Z,-0.79
2022-11-17T08:40:49.813Z,-0.55
2022-11-17T08:45:53.147Z,-0.29
2022-11-17T08:50:56.386Z,-0.28
2022-11-17T08:55:59.774Z,-0.62
2022-11-17T09:01:05.273Z,-0.64
2022-11-17T09:06:08.934Z,-0.98
2022-11-17T09:11:12.535Z,-1.19
2022-11-17T09:16:16.063Z,-1.15
2022-11-17T09:21:18.685Z,-1.08
2022-11-17T09:26:21.448Z,-1.26
2022-11-17T09:31:24.180Z,-1.28
2022-11-17T09:36:27.060Z,-1.27
2022-11-17T09:41:44.583Z,-1.07
2022-11-17T09:46:56.653Z,-1.00
2022-11-17T09:52:11.448Z,-1.13
2022-11-17T09:57:40.982Z,-1.07
2022-11-17T10:02:43.726Z,-1.06
2022-11-17T10:07:51.750Z,-1.02
2022-11-17T10:12:58.290Z,-1.58
2022-11-17T10:18:00.948Z,-1.32
2022-11-17T10:23:04.711Z,-1.38
2022-11-17T10:28:09.821Z,-1.33
2022-11-17T10:33:13.392Z,-1.61
2022-11-17T10:38:22.967Z,-1.59
2022-11-17T10:43:37.077Z,-1.43
2022-11-17T10:48:55.241Z,-2.12
2022-11-17T10:54:14.870Z,-2.53
2022-11-17T10:59:29.934Z,-2.44
2022-11-17T11:04:39.634Z,-2.72
2022-11-17T11:09:49.561Z,-2.31
2022-11-17T11:14:56.277Z,-2.58
2022-11-17T11:19:59.392Z,-2.71
2022-11-17T11:25:21.254Z,-3.02
2022-11-17T11:30:24.012Z,-3.16
2022-11-17T11:35:53.334Z,-3.23
2022-11-17T11:41:42.588Z,-3.22
2022-11-17T11:47:09.386Z,-3.25
2022-11-17T11:52:22.974Z,-3.60
2022-11-17T11:57:32.875Z,-4.06
2022-11-17T12:02:50.333Z,-4.24
2022-11-17T12:07:56.687Z,-4.00
2022-11-17T12:12:59.992Z,-3.80
2022-11-17T12:18:06.450Z,-3.96
2022-11-17T12:23:27.714Z,-3.97
2022-11-17T12:28:40.234Z,-4.35
2022-11-17T12:33:52.077Z,-4.28
2022-11-17T12:38:55.285Z,-4.32
2022-11-17T12:44:36.345Z,-4.37
2022-11-17T12:49:58.022Z,-4.31
2022-11-17T12:55:18.043Z,-4.34
2022-11-17T13:00:23.547Z,-4.24
2022-11-17T13:05:30.348Z,-4.60
2022-11-17T13:10:33.103Z,-4.69
2022-11-17T13:15:35.669Z,-4.79
2022-11-17T13:20:39.652Z,-5.10
2022-11-17T13:25:42.603Z,-5.02
2022-11-17T13:30:47.053Z,-5.02
2022-11-17T13:35:51.456Z,-4.87
2022-11-17T13:40:54.190Z,-5.07
2022-11-17T13:45:57.580Z,-4.91
2022-11-17T13:51:38.908Z,-5.01
2022-11-17T13:56:47.463Z,-5.04
2022-11-17T14:02:10.155Z,-5.18
2022-11-17T14:07:15.083Z,-5.23
2022-11-17T14:12:17.785Z,-5.25
2022-11-17T14:17:22.238Z,-5.46
2022-11-17T14:22:31.348Z,-5.36
2022-11-17T14:27:37.099Z,-5.44
2022-11-17T14:32:40.257Z,-5.69
2022-11-17T14:37:43.581Z,-5.65
2022-11-17T14:42:46.295Z,-5.74
2022-11-17T14:47:48.934Z,-5.92
2022-11-17T14:52:51.454Z,-6.13
2022-11-17T14:57:54.424Z,-5.95
2022-11-17T15:02:57.205Z,-6.18
2022-11-17T15:07:59.895Z,-6.15
2022-11-17T15:13:02.453Z,-6.27
2022-11-17T15:18:05.379Z,-6.37
2022-11-17T15:23:08.452Z,-6.28
2022-11-17T15:28:15.016Z,-6.41
2022-11-17T15:33:19.547Z,-6.56
2022-11-17T15:38:22.160Z,-6.72
2022-11-17T15:43:32.581Z,-6.77
2022-11-17T15:48:40.117Z,-6.47
2022-11-17T15:53:43.783Z,-6.53
2022-11-17T15:58:47.756Z,-6.62
2022-11-17T16:03:51.104Z,-6.54
2022-11-17T16:08:53.981Z,-6.75
2022-11-17T16:13:57.621Z,-6.69
2022-11-17T16:19:00.237Z,-6.83
2022-11-17T16:24:03.537Z,-6.64
2022-11-17T16:29:07.512Z,-6.40
2022-11-17T16:34:13.425Z,-6.32
2022-11-17T16:39:17.478Z,-6.51
2022-11-17T16:44:20.726Z,-6.54
2022-11-17T16:49:23.708Z,-6.41
2022-11-17T16:54:26.298Z,-6.44
2022-11-17T16:59:28.913Z,-6.67
2022-11-17T17:04:32.038Z,-6.39
2022-11-17T17:09:34.751Z,-6.40
2022-11-17T17:14:37.319Z,-6.53
2022-11-17T17:19:39.935Z,-6.35
2022-11-17T17:24:42.698Z,-6.30
2022-11-17T17:29:45.373Z,-6.57
2022-11-17T17:34:47.922Z,-6.54
2022-11-17T17:39:50.512Z,-6.53
2022-11-17T17:44:53.106Z,-6.56
2022-11-17T17:49:55.856Z,-6.47
2022-11-17T17:54:58.512Z,-6.71
2022-11-17T18:00:01.083Z,-6.60
2022-11-17T18:05:07.013Z,-6.48
2022-11-17T18:10:09.712Z,-6.67
2022-11-17T18:15:12.247Z,-6.60
2022-11-17T18:20:15.131Z,-6.65
2022-11-17T18:25:18.097Z,-6.62
2022-11-17T18:30:20.722Z,-6.51
2022-11-17T18:35:23.364Z,-6.46
2022-11-17T18:40:26.348Z,-6.91
2022-11-17T18:45:29.553Z,-6.54
2022-11-17T18:50:32.129Z,-6.48
2022-11-17T18:55:34.689Z,-6.60
2022-11-17T19:00:37.406Z,-6.68
2022-11-17T19:05:39.973Z,-6.80
2022-11-17T19:10:52.813Z,-6.82
2022-11-17T19:15:55.545Z,-6.75
2022-11-17T19:21:08.522Z,-6.80
2022-11-17T19:26:20.024Z,-6.87
2022-11-17T19:31:23.368Z,-6.82
2022-11-17T19:36:31.773Z,-6.91
2022-11-17T19:41:37.020Z,-7.08
2022-11-17T19:46:39.978Z,-7.19
2022-11-17T19:51:42.638Z,-7.08
2022-11-17T19:56:45.676Z,-7.08
2022-11-17T20:01:48.282Z,-7.04
2022-11-17T20:06:51.064Z,-7.20
2022-11-17T20:11:53.742Z,-7.12
2022-11-17T20:16:56.408Z,-7.27
2022-11-17T20:21:59.066Z,-7.33
2022-11-17T20:27:01.636Z,-7.27
2022-11-17T20:32:04.422Z,-7.26
2022-11-17T20:37:06.993Z,-7.22
2022-11-17T20:42:10.434Z,-7.29
2022-11-17T20:47:13.110Z,-7.24
2022-11-17T20:52:15.937Z,-7.18
2022-11-17T20:57:18.905Z,-7.39
2022-11-17T21:02:21.417Z,-7.33
2022-11-17T21:07:24.014Z,-7.21
2022-11-17T21:12:27.294Z,-7.25
2022-11-17T21:17:48.374Z,-7.42
2022-11-17T21:22:51.052Z,-7.35
2022-11-17T21:27:53.595Z,-7.22
2022-11-17T21:32:56.178Z,-7.41
2022-11-17T21:37:59.289Z,-7.37
2022-11-17T21:43:08.049Z,-7.34
2022-11-17T21:48:10.794Z,-7.25
2022-11-17T21:53:13.425Z,-7.16
2022-11-17T21:58:15.920Z,-7.29
2022-11-17T22:03:18.528Z,-7.17
2022-11-17T22:08:21.064Z,-7.23
2022-11-17T22:13:23.630Z,-7.17
2022-11-17T22:18:26.195Z,-7.26
2022-11-17T22:23:28.862Z,-7.31
2022-11-17T22:28:31.535Z,-7.33
2022-11-17T22:33:34.180Z,-7.39
2022-11-17T22:38:36.867Z,-7.34
2022-11-17T22:43:39.615Z,-7.23
2022-11-17T22:48:42.202Z,-7.42
2022-11-17T22:53:44.976Z,-7.43
2022-11-17T22:58:50.059Z,-7.46
2022-11-17T23:03:52.814Z,-7.29
2022-11-17T23:08:57.520Z,-7.61
2022-11-17T23:14:00.155Z,-7.56
2022-11-17T23:19:03.158Z,-7.49
2022-11-17T23:24:06.091Z,-7.59
2022-11-17T23:29:09.482Z,-7.56
2022-11-17T23:34:12.213Z,-7.61
2022-11-17T23:39:15.355Z,-7.72
2022-11-17T23:44:18.283Z,-7.56
2022-11-17T23:49:20.843Z,-7.45
2022-11-17T23:54:23.457Z,-7.68
2022-11-17T23:59:26.006Z,-7.60
